createdAt,value
2023-05-06T00:01:36.382Z,9.33
2023-05-06T00:04:03.157Z,9.27
2023-05-06T00:06:30.045Z,9.33
2023-05-06T00:08:56.455Z,9.28
2023-05-06T00:11:22.978Z,9.25
2023-05-06T00:13:49.412Z,9.29
2023-05-06T00:16:17.108Z,9.32
2023-05-06T00:18:43.617Z,9.25
2023-05-06T00:21:10.086Z,9.16
2023-05-06T00:23:36.643Z,9.20
2023-05-06T00:26:03.300Z,9.24
2023-05-06T00:28:29.816Z,9.24
2023-05-06T00:30:57.501Z,9.15
2023-05-06T00:33:23.995Z,9.22
2023-05-06T00:35:52.523Z,9.28
2023-05-06T00:38:19.614Z,9.12
2023-05-06T00:40:46.125Z,9.12
2023-05-06T00:43:12.727Z,9.23
2023-05-06T00:45:39.870Z,9.24
2023-05-06T00:48:07.242Z,9.25
2023-05-06T00:50:34.664Z,9.29
2023-05-06T00:53:03.417Z,9.20
2023-05-06T00:55:30.564Z,9.26
2023-05-06T00:57:57.315Z,9.11
2023-05-06T01:00:23.957Z,9.15
2023-05-06T01:02:51.507Z,9.07
2023-05-06T01:05:20.876Z,9.06
2023-05-06T01:07:54.876Z,9.11
2023-05-06T01:10:48.691Z,9.20
2023-05-06T01:13:24.781Z,8.97
2023-05-06T01:15:54.885Z,9.02
2023-05-06T01:18:25.481Z,9.06
2023-05-06T01:20:53.751Z,8.96
2023-05-06T01:23:20.811Z,9.04
2023-05-06T01:25:47.488Z,9.00
2023-05-06T01:28:15.638Z,9.03
2023-05-06T01:31:05.581Z,9.03
2023-05-06T01:33:32.080Z,9.00
2023-05-06T01:36:29.158Z,9.01
2023-05-06T01:39:08.542Z,9.03
2023-05-06T01:41:37.962Z,8.99
2023-05-06T01:44:06.964Z,8.98
2023-05-06T01:46:35.496Z,9.08
2023-05-06T01:49:05.950Z,9.07
2023-05-06T01:51:34.169Z,9.09
2023-05-06T01:54:02.387Z,9.11
2023-05-06T01:56:32.230Z,9.13
2023-05-06T01:58:59.760Z,9.13
2023-05-06T02:01:26.852Z,9.06
2023-05-06T02:03:53.496Z,9.03
2023-05-06T02:06:20.291Z,9.05
2023-05-06T02:08:46.965Z,9.08
2023-05-06T02:11:19.023Z,9.09
2023-05-06T02:13:47.459Z,9.14
2023-05-06T02:16:14.032Z,9.16
2023-05-06T02:18:41.380Z,9.12
2023-05-06T02:21:09.936Z,9.13
2023-05-06T02:23:36.607Z,9.14
2023-05-06T02:26:04.275Z,9.19
2023-05-06T02:28:33.004Z,9.18
2023-05-06T02:30:59.445Z,9.17
2023-05-06T02:33:26.123Z,9.15
2023-05-06T02:35:52.657Z,9.10
2023-05-06T02:38:19.814Z,9.12
2023-05-06T02:40:46.263Z,9.10
2023-05-06T02:43:12.756Z,9.10
2023-05-06T02:45:39.264Z,9.16
2023-05-06T02:48:06.399Z,9.15
2023-05-06T02:50:34.031Z,9.11
2023-05-06T02:53:00.648Z,9.13
2023-05-06T02:55:27.162Z,9.01
2023-05-06T02:57:54.018Z,9.02
2023-05-06T03:00:20.961Z,9.00
2023-05-06T03:02:47.474Z,8.95
2023-05-06T03:05:13.987Z,9.00
2023-05-06T03:07:41.081Z,8.99
2023-05-06T03:10:07.887Z,9.05
2023-05-06T03:12:36.622Z,9.05
2023-05-06T03:15:03.406Z,9.02
2023-05-06T03:17:30.032Z,9.11
2023-05-06T03:19:56.945Z,9.16
2023-05-06T03:22:23.442Z,9.07
2023-05-06T03:24:49.902Z,9.02
2023-05-06T03:27:17.207Z,8.97
2023-05-06T03:29:46.839Z,9.05
2023-05-06T03:32:16.057Z,9.10
2023-05-06T03:34:44.129Z,9.12
2023-05-06T03:37:15.303Z,9.13
2023-05-06T03:39:47.777Z,9.04
2023-05-06T03:42:14.893Z,9.02
2023-05-06T03:44:41.796Z,9.04
2023-05-06T03:47:08.399Z,8.97
2023-05-06T03:49:35.146Z,9.02
2023-05-06T03:52:01.899Z,9.02
2023-05-06T03:54:28.372Z,9.05
2023-05-06T03:56:55.185Z,9.03
2023-05-06T03:59:21.648Z,9.05
2023-05-06T04:01:48.807Z,9.01
2023-05-06T04:04:16.758Z,9.03
2023-05-06T04:06:44.265Z,8.98
2023-05-06T04:09:10.678Z,8.96
2023-05-06T04:11:39.036Z,9.00
2023-05-06T04:14:07.013Z,9.02
2023-05-06T04:16:34.764Z,8.99
2023-05-06T04:19:01.461Z,9.02
2023-05-06T04:21:29.674Z,9.05
2023-05-06T04:24:02.458Z,8.97
2023-05-06T04:26:34.830Z,9.04
2023-05-06T04:29:01.845Z,9.06
2023-05-06T04:31:30.588Z,9.09
2023-05-06T04:34:01.652Z,9.14
2023-05-06T04:36:30.724Z,9.11
2023-05-06T04:39:14.081Z,9.14
2023-05-06T04:41:41.814Z,9.13
2023-05-06T04:44:10.292Z,9.17
2023-05-06T04:46:36.983Z,9.13
2023-05-06T04:49:03.802Z,9.12
2023-05-06T04:51:31.600Z,9.16
2023-05-06T04:53:59.163Z,9.21
2023-05-06T04:56:26.167Z,9.18
2023-05-06T04:58:52.703Z,9.15
2023-05-06T05:01:19.510Z,9.15
2023-05-06T05:03:46.717Z,9.18
2023-05-06T05:06:13.684Z,9.12
2023-05-06T05:08:40.254Z,9.12
2023-05-06T05:11:07.700Z,9.12
2023-05-06T05:13:35.675Z,9.13
2023-05-06T05:16:02.972Z,9.15
2023-05-06T05:18:32.354Z,9.18
2023-05-06T05:21:05.294Z,9.19
2023-05-06T05:23:33.329Z,9.22
2023-05-06T05:25:59.901Z,9.21
2023-05-06T05:28:26.973Z,9.19
2023-05-06T05:30:54.449Z,9.16
2023-05-06T05:33:21.598Z,9.17
2023-05-06T05:35:48.126Z,9.21
2023-05-06T05:38:15.421Z,9.29
2023-05-06T05:40:42.812Z,9.22
2023-05-06T05:43:09.414Z,9.31
2023-05-06T05:45:39.157Z,9.33
2023-05-06T05:48:06.849Z,9.26
2023-05-06T05:50:33.544Z,9.33
2023-05-06T05:53:00.044Z,9.39
2023-05-06T05:55:27.083Z,9.42
2023-05-06T05:57:55.082Z,9.41
2023-05-06T06:00:22.940Z,9.37
2023-05-06T06:02:55.860Z,9.41
2023-05-06T06:05:22.372Z,9.34
2023-05-06T06:07:49.036Z,9.35
2023-05-06T06:10:15.838Z,9.39
2023-05-06T06:12:44.749Z,9.47
2023-05-06T06:15:14.622Z,9.46
2023-05-06T06:17:44.005Z,9.50
2023-05-06T06:20:12.998Z,9.57
2023-05-06T06:22:40.114Z,9.60
2023-05-06T06:25:07.488Z,9.63
2023-05-06T06:27:36.589Z,9.68
2023-05-06T06:30:04.014Z,9.70
2023-05-06T06:32:31.144Z,9.66
2023-05-06T06:34:57.640Z,9.64
2023-05-06T06:37:24.080Z,9.61
2023-05-06T06:39:50.554Z,9.49
2023-05-06T06:42:17.249Z,9.50
2023-05-06T06:44:59.675Z,9.52
2023-05-06T06:47:26.167Z,9.55
2023-05-06T06:49:52.696Z,9.59
2023-05-06T06:52:19.469Z,9.52
2023-05-06T06:54:46.060Z,9.46
2023-05-06T06:57:12.585Z,9.51
2023-05-06T06:59:39.016Z,9.42
2023-05-06T07:02:05.685Z,9.49
2023-05-06T07:04:32.146Z,9.43
2023-05-06T07:06:58.705Z,9.55
2023-05-06T07:09:25.502Z,9.70
2023-05-06T07:11:52.052Z,9.63
2023-05-06T07:14:18.578Z,9.61
2023-05-06T07:16:46.383Z,9.65
2023-05-06T07:19:13.644Z,9.74
2023-05-06T07:21:40.201Z,9.80
2023-05-06T07:24:07.193Z,9.82
2023-05-06T07:26:37.518Z,9.88
2023-05-06T07:29:04.492Z,9.81
2023-05-06T07:31:33.864Z,9.73
2023-05-06T07:34:00.576Z,9.73
2023-05-06T07:36:27.536Z,9.66
2023-05-06T07:38:54.239Z,9.68
2023-05-06T07:41:21.005Z,9.71
2023-05-06T07:43:47.632Z,9.82
2023-05-06T07:46:14.108Z,9.89
2023-05-06T07:48:40.986Z,9.95
2023-05-06T07:51:07.387Z,10.03
2023-05-06T07:53:34.017Z,10.10
2023-05-06T07:56:02.549Z,10.05
2023-05-06T07:58:31.041Z,10.08
2023-05-06T08:00:58.482Z,10.11
2023-05-06T08:03:25.138Z,9.94
2023-05-06T08:05:52.189Z,9.87
2023-05-06T08:08:19.793Z,9.95
2023-05-06T08:10:46.366Z,10.11
2023-05-06T08:13:13.013Z,10.12
2023-05-06T08:15:39.850Z,10.26
2023-05-06T08:18:21.047Z,10.05
2023-05-06T08:20:48.581Z,10.02
2023-05-06T08:23:15.311Z,10.14
2023-05-06T08:25:41.996Z,10.29
2023-05-06T08:28:08.442Z,10.33
2023-05-06T08:30:34.911Z,10.35
2023-05-06T08:33:02.290Z,10.29
2023-05-06T08:35:28.824Z,10.32
2023-05-06T08:37:55.415Z,10.39
2023-05-06T08:40:23.316Z,10.47
2023-05-06T08:42:50.662Z,10.45
2023-05-06T08:45:17.696Z,10.38
2023-05-06T08:47:44.670Z,10.43
2023-05-06T08:50:11.468Z,10.51
2023-05-06T08:52:41.223Z,10.61
2023-05-06T08:55:09.531Z,10.71
2023-05-06T08:57:37.183Z,10.76
2023-05-06T09:00:04.892Z,10.79
2023-05-06T09:02:31.599Z,10.78
2023-05-06T09:04:59.629Z,10.83
2023-05-06T09:07:26.288Z,10.68
2023-05-06T09:09:52.772Z,10.75
2023-05-06T09:12:19.453Z,10.68
2023-05-06T09:14:51.236Z,10.77
2023-05-06T09:17:23.802Z,10.66
2023-05-06T09:19:54.744Z,10.65
2023-05-06T09:22:22.179Z,10.76
2023-05-06T09:24:58.117Z,10.91
2023-05-06T09:27:27.017Z,10.88
2023-05-06T09:30:20.066Z,10.75
2023-05-06T09:32:49.705Z,10.86
2023-05-06T09:35:16.176Z,10.95
2023-05-06T09:37:42.697Z,10.87
2023-05-06T09:40:09.522Z,10.71
2023-05-06T09:42:36.108Z,10.91
2023-05-06T09:45:05.440Z,11.06
2023-05-06T09:47:35.618Z,11.02
2023-05-06T09:50:03.640Z,10.91
2023-05-06T09:52:30.799Z,10.85
2023-05-06T09:54:58.067Z,10.89
2023-05-06T09:57:24.665Z,11.01
2023-05-06T09:59:54.723Z,11.00
2023-05-06T10:02:23.669Z,10.96
2023-05-06T10:04:51.114Z,11.08
2023-05-06T10:07:22.786Z,11.08
2023-05-06T10:09:51.302Z,11.20
2023-05-06T10:12:19.089Z,11.09
2023-05-06T10:14:46.171Z,11.08
2023-05-06T10:17:13.744Z,11.11
2023-05-06T10:19:44.539Z,11.18
2023-05-06T10:22:19.559Z,11.19
2023-05-06T10:25:05.572Z,11.10
2023-05-06T10:27:35.828Z,11.06
2023-05-06T10:30:02.492Z,11.13
2023-05-06T10:32:32.525Z,11.15
2023-05-06T10:35:13.190Z,11.05
2023-05-06T10:37:41.418Z,11.01
2023-05-06T10:40:09.987Z,11.05
2023-05-06T10:42:36.443Z,11.25
2023-05-06T10:45:04.728Z,11.29
2023-05-06T10:47:55.972Z,11.35
2023-05-06T10:50:27.107Z,11.42
2023-05-06T10:52:55.618Z,11.46
2023-05-06T10:55:27.534Z,11.45
2023-05-06T10:57:56.558Z,11.53
2023-05-06T11:00:23.788Z,11.42
2023-05-06T11:02:54.745Z,11.37
2023-05-06T11:05:22.416Z,11.35
2023-05-06T11:07:52.998Z,11.47
2023-05-06T11:10:32.150Z,11.58
2023-05-06T11:13:00.294Z,11.73
2023-05-06T11:15:40.203Z,11.54
2023-05-06T11:18:24.547Z,11.61
2023-05-06T11:21:12.638Z,11.41
2023-05-06T11:23:42.030Z,11.42
2023-05-06T11:26:12.064Z,11.32
2023-05-06T11:28:39.880Z,11.24
2023-05-06T11:31:07.875Z,11.25
2023-05-06T11:33:36.537Z,11.21
2023-05-06T11:36:04.810Z,11.36
2023-05-06T11:38:49.539Z,11.44
2023-05-06T11:41:16.979Z,11.40
2023-05-06T11:43:50.975Z,11.31
2023-05-06T11:46:22.064Z,11.19
2023-05-06T11:48:49.106Z,11.25
2023-05-06T11:51:16.132Z,11.44
2023-05-06T11:53:42.668Z,11.53
2023-05-06T11:56:09.113Z,11.65
2023-05-06T11:58:35.620Z,11.52
2023-05-06T12:01:04.262Z,11.55
2023-05-06T12:03:32.840Z,11.56
2023-05-06T12:05:59.744Z,11.42
2023-05-06T12:08:31.620Z,11.56
2023-05-06T12:11:01.543Z,11.63
2023-05-06T12:13:28.860Z,11.58
2023-05-06T12:15:58.210Z,11.75
2023-05-06T12:18:25.579Z,11.60
2023-05-06T12:21:02.429Z,11.74
2023-05-06T12:23:29.017Z,11.79
2023-05-06T12:26:06.495Z,11.88
2023-05-06T12:28:36.135Z,11.80
2023-05-06T12:31:28.681Z,11.92
2023-05-06T12:33:56.878Z,12.00
2023-05-06T12:36:24.014Z,11.99
2023-05-06T12:38:57.697Z,11.97
2023-05-06T12:41:36.074Z,11.96
2023-05-06T12:44:02.970Z,11.88
2023-05-06T12:46:29.496Z,11.82
2023-05-06T12:49:03.465Z,11.79
2023-05-06T12:51:31.100Z,11.85
2023-05-06T12:53:57.989Z,11.70
2023-05-06T12:56:24.663Z,11.77
2023-05-06T12:59:01.661Z,11.63
2023-05-06T13:01:28.313Z,11.49
2023-05-06T13:03:57.410Z,11.41
2023-05-06T13:06:24.221Z,11.63
2023-05-06T13:08:50.967Z,11.79
2023-05-06T13:11:17.393Z,11.89
2023-05-06T13:13:44.118Z,12.03
2023-05-06T13:16:10.713Z,12.09
2023-05-06T13:18:37.463Z,11.96
2023-05-06T13:21:03.987Z,11.81
2023-05-06T13:23:32.108Z,11.93
2023-05-06T13:26:04.867Z,11.99
2023-05-06T13:28:33.654Z,11.93
2023-05-06T13:31:00.295Z,12.13
2023-05-06T13:33:28.124Z,12.11
2023-05-06T13:35:54.642Z,12.12
2023-05-06T13:38:21.666Z,12.05
2023-05-06T13:40:52.582Z,12.09
2023-05-06T13:43:19.874Z,12.05
2023-05-06T13:45:46.415Z,12.09
2023-05-06T13:48:13.629Z,11.76
2023-05-06T13:50:44.137Z,11.70
2023-05-06T13:53:10.912Z,11.77
2023-05-06T13:55:37.764Z,11.85
2023-05-06T13:58:06.073Z,11.82
2023-05-06T14:00:33.901Z,11.79
2023-05-06T14:03:00.641Z,11.92
2023-05-06T14:05:27.304Z,11.94
2023-05-06T14:07:53.821Z,12.04
2023-05-06T14:10:21.137Z,12.00
2023-05-06T14:12:48.101Z,12.04
2023-05-06T14:15:15.014Z,11.95
2023-05-06T14:17:41.630Z,11.81
2023-05-06T14:20:11.720Z,11.81
2023-05-06T14:22:41.014Z,11.84
2023-05-06T14:25:08.578Z,11.81
2023-05-06T14:27:35.890Z,11.86
2023-05-06T14:30:08.235Z,11.98
2023-05-06T14:32:35.714Z,11.92
2023-05-06T14:35:02.282Z,11.91
2023-05-06T14:37:28.696Z,11.85
2023-05-06T14:39:57.032Z,11.88
2023-05-06T14:42:23.438Z,11.71
2023-05-06T14:44:50.842Z,11.71
2023-05-06T14:47:17.535Z,11.74
2023-05-06T14:49:44.116Z,11.75
2023-05-06T14:52:10.619Z,11.56
2023-05-06T14:54:42.290Z,11.61
2023-05-06T14:57:09.508Z,11.56
2023-05-06T14:59:36.480Z,11.54
2023-05-06T15:02:03.651Z,11.61
2023-05-06T15:04:30.851Z,11.65
2023-05-06T15:06:57.733Z,11.61
2023-05-06T15:09:25.520Z,11.51
2023-05-06T15:11:52.592Z,11.63
2023-05-06T15:14:19.226Z,11.58
2023-05-06T15:16:45.826Z,11.41
2023-05-06T15:19:12.716Z,11.50
2023-05-06T15:21:39.165Z,11.29
2023-05-06T15:24:06.278Z,11.30
2023-05-06T15:26:32.735Z,11.45
2023-05-06T15:28:59.195Z,11.51
2023-05-06T15:31:25.670Z,11.23
2023-05-06T15:33:52.254Z,11.22
2023-05-06T15:36:18.666Z,11.14
2023-05-06T15:38:51.301Z,11.08
2023-05-06T15:41:18.703Z,11.15
2023-05-06T15:43:45.586Z,11.03
2023-05-06T15:46:12.218Z,10.99
2023-05-06T15:48:38.778Z,10.87
2023-05-06T15:51:05.213Z,10.79
2023-05-06T15:53:31.669Z,10.81
2023-05-06T15:56:08.976Z,10.86
2023-05-06T15:58:43.845Z,10.85
2023-05-06T16:01:10.989Z,10.88
2023-05-06T16:03:41.206Z,10.98
2023-05-06T16:06:09.196Z,10.74
2023-05-06T16:08:36.564Z,10.87
2023-05-06T16:11:02.960Z,10.99
2023-05-06T16:13:29.563Z,11.09
2023-05-06T16:15:56.148Z,11.07
2023-05-06T16:18:22.827Z,11.03
2023-05-06T16:20:49.311Z,11.11
2023-05-06T16:23:16.343Z,11.17
2023-05-06T16:25:43.075Z,11.07
2023-05-06T16:28:09.620Z,11.15
2023-05-06T16:30:36.716Z,11.16
2023-05-06T16:33:05.197Z,11.08
2023-05-06T16:35:32.568Z,11.08
2023-05-06T16:37:59.138Z,11.05
2023-05-06T16:40:27.589Z,10.84
2023-05-06T16:42:54.622Z,10.76
2023-05-06T16:45:21.041Z,10.67
2023-05-06T16:47:48.253Z,10.77
2023-05-06T16:50:14.792Z,10.66
2023-05-06T16:52:41.478Z,10.70
2023-05-06T16:55:08.318Z,10.77
2023-05-06T16:57:34.954Z,10.81
2023-05-06T17:00:01.839Z,10.81
2023-05-06T17:02:28.555Z,10.79
2023-05-06T17:04:55.181Z,10.79
2023-05-06T17:07:21.774Z,10.75
2023-05-06T17:09:48.182Z,10.74
2023-05-06T17:12:14.650Z,10.86
2023-05-06T17:14:42.676Z,10.87
2023-05-06T17:17:09.242Z,10.76
2023-05-06T17:19:35.734Z,10.81
2023-05-06T17:22:02.359Z,10.83
2023-05-06T17:24:28.792Z,10.73
2023-05-06T17:26:55.619Z,10.68
2023-05-06T17:29:22.194Z,10.56
2023-05-06T17:31:49.648Z,10.57
2023-05-06T17:34:16.047Z,10.59
2023-05-06T17:36:42.627Z,10.52
2023-05-06T17:39:09.450Z,10.57
2023-05-06T17:41:36.136Z,10.48
2023-05-06T17:44:02.563Z,10.55
2023-05-06T17:46:29.226Z,10.49
2023-05-06T17:48:55.766Z,10.48
2023-05-06T17:51:22.413Z,10.48
2023-05-06T17:53:48.904Z,10.47
2023-05-06T17:56:15.377Z,10.53
2023-05-06T17:58:42.031Z,10.52
2023-05-06T18:01:08.941Z,10.46
2023-05-06T18:03:35.573Z,10.47
2023-05-06T18:06:02.365Z,10.42
2023-05-06T18:08:28.822Z,10.41
2023-05-06T18:10:55.276Z,10.48
2023-05-06T18:13:22.709Z,10.50
2023-05-06T18:15:49.226Z,10.49
2023-05-06T18:18:16.016Z,10.40
2023-05-06T18:20:42.638Z,10.39
2023-05-06T18:23:09.219Z,10.26
2023-05-06T18:25:35.694Z,10.26
2023-05-06T18:28:02.403Z,10.24
2023-05-06T18:30:29.139Z,10.25
2023-05-06T18:32:56.745Z,10.29
2023-05-06T18:35:23.424Z,10.35
2023-05-06T18:37:50.033Z,10.33
2023-05-06T18:40:17.727Z,10.28
2023-05-06T18:42:44.142Z,10.27
2023-05-06T18:45:11.485Z,10.34
2023-05-06T18:47:40.048Z,10.35
2023-05-06T18:50:08.326Z,10.30
2023-05-06T18:52:37.820Z,10.20
2023-05-06T18:55:05.619Z,10.15
2023-05-06T18:57:32.164Z,10.12
2023-05-06T18:59:58.710Z,10.15
2023-05-06T19:02:25.322Z,10.15
2023-05-06T19:04:51.822Z,10.16
2023-05-06T19:07:18.261Z,10.21
2023-05-06T19:09:44.844Z,10.24
2023-05-06T19:12:11.473Z,10.21
2023-05-06T19:14:37.993Z,10.25
2023-05-06T19:17:04.607Z,10.21
2023-05-06T19:19:31.330Z,10.24
2023-05-06T19:21:58.959Z,10.22
2023-05-06T19:24:25.891Z,10.16
2023-05-06T19:26:52.445Z,10.14
2023-05-06T19:29:18.950Z,10.20
2023-05-06T19:31:45.402Z,10.20
2023-05-06T19:34:12.021Z,10.13
2023-05-06T19:36:38.437Z,10.13
2023-05-06T19:39:05.000Z,10.12
2023-05-06T19:41:31.505Z,10.04
2023-05-06T19:43:57.965Z,10.09
2023-05-06T19:46:24.464Z,10.07
2023-05-06T19:48:50.955Z,10.04
2023-05-06T19:51:17.368Z,9.98
2023-05-06T19:53:44.183Z,9.97
2023-05-06T19:56:12.448Z,9.96
2023-05-06T19:58:39.486Z,9.94
2023-05-06T20:01:05.998Z,9.91
2023-05-06T20:03:33.027Z,9.91
2023-05-06T20:05:59.546Z,9.89
2023-05-06T20:08:26.676Z,9.91
2023-05-06T20:10:53.253Z,9.92
2023-05-06T20:13:20.093Z,9.93
2023-05-06T20:15:47.337Z,9.97
2023-05-06T20:18:14.341Z,10.02
2023-05-06T20:20:40.978Z,10.00
2023-05-06T20:23:07.570Z,9.96
2023-05-06T20:25:36.012Z,9.97
2023-05-06T20:28:04.318Z,9.96
2023-05-06T20:30:30.997Z,9.89
2023-05-06T20:32:57.819Z,9.87
2023-05-06T20:35:24.646Z,9.85
2023-05-06T20:37:52.057Z,9.77
2023-05-06T20:40:18.561Z,9.84
2023-05-06T20:42:45.041Z,9.83
2023-05-06T20:45:11.872Z,9.87
2023-05-06T20:47:38.758Z,9.86
2023-05-06T20:50:05.586Z,9.81
2023-05-06T20:52:33.840Z,9.77
2023-05-06T20:55:00.628Z,9.84
2023-05-06T20:57:28.577Z,9.86
2023-05-06T20:59:56.199Z,9.82
2023-05-06T21:02:22.911Z,9.79
2023-05-06T21:04:49.553Z,9.83
2023-05-06T21:07:16.022Z,9.82
2023-05-06T21:09:42.619Z,9.76
2023-05-06T21:12:09.390Z,9.72
2023-05-06T21:14:35.875Z,9.72
2023-05-06T21:17:02.367Z,9.76
2023-05-06T21:19:28.995Z,9.78
2023-05-06T21:21:56.617Z,9.83
2023-05-06T21:24:23.282Z,9.85
2023-05-06T21:26:51.129Z,9.85
2023-05-06T21:29:17.692Z,9.78
2023-05-06T21:31:44.124Z,9.73
2023-05-06T21:34:10.815Z,9.73
2023-05-06T21:36:37.241Z,9.73
2023-05-06T21:39:12.203Z,9.76
2023-05-06T21:41:39.220Z,9.79
2023-05-06T21:44:07.276Z,9.80
2023-05-06T21:46:34.821Z,9.69
2023-05-06T21:49:01.761Z,9.72
2023-05-06T21:51:33.582Z,9.80
2023-05-06T21:54:00.948Z,9.83
2023-05-06T21:56:27.872Z,9.83
2023-05-06T21:58:58.056Z,9.81
2023-05-06T22:01:29.130Z,9.78
2023-05-06T22:03:56.075Z,9.84
2023-05-06T22:06:22.803Z,9.82
2023-05-06T22:08:49.446Z,9.77
2023-05-06T22:11:16.420Z,9.77
2023-05-06T22:13:42.933Z,9.76
2023-05-06T22:16:09.694Z,9.76
2023-05-06T22:18:41.471Z,9.78
2023-05-06T22:21:08.636Z,9.84
2023-05-06T22:23:35.654Z,9.71
2023-05-06T22:26:02.206Z,9.59
2023-05-06T22:28:28.679Z,9.62
2023-05-06T22:30:55.145Z,9.67
2023-05-06T22:33:22.805Z,9.67
2023-05-06T22:35:49.250Z,9.67
2023-05-06T22:38:15.693Z,9.61
2023-05-06T22:40:42.159Z,9.53
2023-05-06T22:43:08.602Z,9.52
2023-05-06T22:45:35.023Z,9.53
2023-05-06T22:48:01.619Z,9.60
2023-05-06T22:50:28.070Z,9.60
2023-05-06T22:52:54.812Z,9.54
2023-05-06T22:55:21.449Z,9.52
2023-05-06T22:57:50.006Z,9.57
2023-05-06T23:00:17.397Z,9.60
2023-05-06T23:02:44.008Z,9.60
2023-05-06T23:05:10.693Z,9.62
2023-05-06T23:07:37.327Z,9.55
2023-05-06T23:10:04.168Z,9.46
2023-05-06T23:12:35.130Z,9.42
2023-05-06T23:15:02.250Z,9.44
2023-05-06T23:17:28.740Z,9.39
2023-05-06T23:19:55.230Z,9.42
2023-05-06T23:22:22.031Z,9.38
2023-05-06T23:24:48.463Z,9.32
2023-05-06T23:27:14.992Z,9.31
2023-05-06T23:29:41.643Z,9.29
2023-05-06T23:32:08.417Z,9.29
2023-05-06T23:34:34.849Z,9.27
2023-05-06T23:37:01.418Z,9.32
2023-05-06T23:39:27.929Z,9.29
2023-05-06T23:41:54.654Z,9.32
2023-05-06T23:44:21.162Z,9.27
2023-05-06T23:46:47.794Z,9.31
2023-05-06T23:49:15.091Z,9.24
2023-05-06T23:51:41.814Z,9.31
2023-05-06T23:54:08.338Z,9.23
2023-05-06T23:56:34.953Z,9.16
2023-05-06T23:59:01.418Z,9.20
